Latest Coastal Weather Observations for Bedout Island

IDW60701

Issued at 12:33 am WST Tuesday 6 December 2016 (issued every 10 minutes, with the page automatically refreshed every 10 minutes)

About coastal observations | Map of coastal stations | Coastal observations for WA | Marine services | Other Formats
Station Details ID: 004100 Name: BEDOUT ISLAND Lat: -19.59 Lon: 119.10 Height: 8.6 m
Data from the previous 72 hours. | See also: Recent months at Bedout Island
Date/Time
WST
Temp
°C
Wind Pressure Rain since
9am
mm
Weather Cloud Vis
km
Sea
Height
m
Swell
Dir  Spd
kts
Gust
kts
hPa Trend Height
m
Period
s
Dir
06/12:30am 27.4 W 10 12 1008.8 - - - - - - - - -
06/12:00am 27.3 W 10 12 1008.6 - - - - - - - - -
 
Date/Time
WST
Temp
°C
Wind Pressure Rain since
9am
mm
Weather Cloud Vis
km
Sea
Height
m
Swell
Dir  Spd
kts
Gust
kts
hPa Trend Height
m
Period
s
Dir
05/11:00pm 27.2 W 9 11 1009.0 - - - - - - - - -
05/10:00pm 27.2 W 10 11 1009.2 - - - - - - - - -
05/09:00pm 27.3 W 10 12 1009.1 - - - - - - - - -
05/08:30pm 27.3 W 10 12 1009.0 - - - - - - - - -
05/08:00pm 27.3 W 10 14 1008.6 - - - - - - - - -
05/07:30pm 27.4 W 13 15 1008.5 - - - - - - - - -
05/07:00pm 27.6 W 10 11 1008.2 - - - - - - - - -
05/06:30pm 27.8 W 10 13 1007.9 - - - - - - - - -
05/06:00pm 28.7 W 10 12 1007.7 - - - - - - - - -
05/05:30pm 28.9 W 11 14 1007.8 - - - - - - - - -
05/05:00pm 29.5 W 10 14 1007.6 - - - - - - - - -
05/04:00pm 30.5 W 10 13 1007.5 - - - - - - - - -
05/03:30pm 30.1 W 10 13 1007.7 - - - - - - - - -
05/03:00pm 30.6 W 10 12 1007.7 - - - - - - - - -
05/01:30pm 30.7 W 9 11 1008.5 - - - - - - - - -
05/01:00pm 30.2 W 8 11 1008.7 - - - - - - - - -
05/12:30pm 30.5 W 8 9 1008.9 - - - - - - - - -
05/12:00pm 30.0 W 7 10 1009.2 - - - - - - - - -
05/11:30am 29.7 W 6 7 1009.5 - - - - - - - - -
05/11:00am 30.4 W 7 9 1009.7 - - - - - - - - -
05/10:00am 29.3 W 8 11 1009.9 - - - - - - - - -
05/09:30am 29.4 W 10 12 1010.0 - - - - - - - - -
05/09:00am 29.3 W 11 13 1009.8 - - - - - - - - -
05/08:30am 29.1 W 11 13 1009.7 - - - - - - - - -
05/08:00am 27.8 W 12 14 1009.5 - - - - - - - - -
05/07:30am 27.7 W 12 15 1009.3 - - - - - - - - -
05/07:00am 27.2 W 14 17 1009.0 - - - - - - - - -
05/06:30am 27.0 W 16 18 1009.0 - - - - - - - - -
05/06:00am 26.8 W 16 18 1008.8 - - - - - - - - -
05/05:30am 26.7 W 14 17 1008.8 - - - - - - - - -
05/05:00am 26.6 W 13 16 1008.5 - - - - - - - - -
05/04:30am 26.6 W 12 15 1008.4 - - - - - - - - -
05/03:30am 26.7 W 14 16 1008.2 - - - - - - - - -
05/02:30am 26.8 W 15 18 1008.0 - - - - - - - - -
05/01:30am 26.7 W 14 17 1007.8 - - - - - - - - -
05/12:00am 26.7 W 13 16 1008.7 - - - - - - - - -
 
Date/Time
WST
Temp
°C
Wind Pressure Rain since
9am
mm
Weather Cloud Vis
km
Sea
Height
m
Swell
Dir  Spd
kts
Gust
kts
hPa Trend Height
m
Period
s
Dir
04/11:00pm 26.8 W 14 15 1009.0 - - - - - - - - -
04/10:30pm 26.8 W 14 17 1009.1 - - - - - - - - -
04/10:00pm 26.6 W 15 17 1009.0 - - - - - - - - -
04/09:30pm 26.5 W 14 17 1008.9 - - - - - - - - -
04/08:30pm 26.6 W 14 16 1008.7 - - - - - - - - -
04/07:30pm 26.8 W 14 16 1008.2 - - - - - - - - -
04/07:00pm 26.9 W 12 15 1007.8 - - - - - - - - -
04/06:30pm 27.0 W 11 13 1007.5 - - - - - - - - -
04/06:00pm 27.3 W 12 14 1007.1 - - - - - - - - -
04/05:30pm 27.6 W 12 14 1007.0 - - - - - - - - -
04/05:00pm 28.1 W 13 15 1006.7 - - - - - - - - -
04/04:30pm 28.5 W 13 16 1006.9 - - - - - - - - -
04/04:00pm 28.9 W 15 18 1006.5 - - - - - - - - -
04/03:00pm 29.3 W 14 18 1006.9 - - - - - - - - -
04/02:30pm 28.6 W 14 18 1007.6 - - - - - - - - -
04/02:00pm 28.7 W 15 18 1007.7 - - - - - - - - -
04/01:30pm 28.9 W 15 17 1007.9 - - - - - - - - -
04/01:00pm 29.4 W 14 16 1008.4 - - - - - - - - -
04/12:30pm 29.7 W 13 17 1008.8 - - - - - - - - -
04/11:00am 30.3 W 11 14 1009.3 - - - - - - - - -
04/10:30am 30.4 W 11 14 1009.5 - - - - - - - - -
04/10:00am 30.5 W 10 13 1009.4 - - - - - - - - -
04/09:30am 30.5 W 11 13 1009.5 - - - - - - - - -
04/09:00am 29.4 W 9 12 1009.5 - - - - - - - - -
04/08:30am 29.7 W 10 13 1009.5 - - - - - - - - -
04/08:00am 27.6 W 10 12 1009.3 - - - - - - - - -
04/07:30am 28.0 W 12 14 1009.1 - - - - - - - - -
04/06:30am 26.8 W 12 14 1008.8 - - - - - - - - -
04/05:30am 26.5 W 15 18 1008.5 - - - - - - - - -
04/04:30am 26.6 W 16 18 1008.2 - - - - - - - - -
04/04:00am 26.6 W 17 20 1007.8 - - - - - - - - -
04/03:30am 26.5 W 17 20 1007.6 - - - - - - - - -
04/03:00am 26.7 W 18 21 1007.6 - - - - - - - - -
04/02:30am 26.7 W 18 21 1007.7 - - - - - - - - -
04/02:00am 26.9 W 19 23 1007.8 - - - - - - - - -
04/01:30am 26.7 WNW 16 19 1007.9 - - - - - - - - -
04/01:00am 26.7 WNW 16 19 1007.9 - - - - - - - - -
04/12:30am 26.8 WNW 18 21 1008.1 - - - - - - - - -
04/12:00am 26.9 WNW 18 21 1008.2 - - - - - - - - -
 
Date/Time
WST
Temp
°C
Wind Pressure Rain since
9am
mm
Weather Cloud Vis
km
Sea
Height
m
Swell
Dir  Spd
kts
Gust
kts
hPa Trend Height
m
Period
s
Dir
03/11:00pm 26.9 WNW 18 20 1008.6 - - - - - - - - -
03/10:30pm 26.9 WNW 18 20 1008.8 - - - - - - - - -
03/10:00pm 27.0 WNW 16 19 1008.9 - - - - - - - - -
03/09:30pm 27.0 WNW 16 18 1009.1 - - - - - - - - -
03/09:00pm 27.0 WNW 16 18 1008.8 - - - - - - - - -
03/08:30pm 26.9 WNW 17 19 1008.3 - - - - - - - - -
03/08:00pm 26.9 WNW 17 19 1007.9 - - - - - - - - -
03/07:30pm 27.1 WNW 16 18 1007.6 - - - - - - - - -
03/07:00pm 27.3 WNW 15 17 1007.5 - - - - - - - - -
03/06:30pm 27.5 WNW 15 17 1007.4 - - - - - - - - -
03/06:00pm 27.8 WNW 13 16 1007.2 - - - - - - - - -
03/05:30pm 28.2 WNW 13 15 1007.2 - - - - - - - - -
03/05:00pm 29.2 WNW 14 16 1006.8 - - - - - - - - -
03/04:30pm 29.6 WNW 15 17 1006.6 - - - - - - - - -
03/04:00pm 30.2 WNW 14 17 1006.7 - - - - - - - - -
03/03:30pm 30.2 WNW 14 16 1006.8 - - - - - - - - -
03/03:00pm 30.3 WNW 15 17 1007.1 - - - - - - - - -
03/02:30pm 30.8 WNW 13 16 1007.4 - - - - - - - - -
03/02:00pm 31.4 WNW 14 17 1007.5 - - - - - - - - -
03/01:30pm 31.0 WNW 15 18 1007.5 - - - - - - - - -
03/01:00pm 30.9 WNW 14 17 1007.7 - - - - - - - - -
03/12:00pm 31.5 W 16 19 1007.8 - - - - - - - - -
03/11:30am 30.4 W 15 17 1008.1 - - - - - - - - -
03/11:00am 30.6 W 14 16 1008.3 - - - - - - - - -
03/10:30am 30.6 W 15 17 1008.3 - - - - - - - - -
03/10:00am 29.9 W 15 17 1008.8 - - - - - - - - -
03/09:30am 30.1 W 15 17 1008.7 - - - - - - - - -
03/09:00am 29.9 W 16 19 1008.5 - - - - - - - - -
03/08:30am 29.7 W 16 18 1008.2 - - - - - - - - -
03/08:00am 29.3 W 13 15 1008.2 - - - - - - - - -
03/07:30am 28.7 W 13 15 1008.3 - - - - - - - - -
03/07:00am 27.7 W 15 17 1008.0 - - - - - - - - -
03/06:00am 26.8 W 13 16 1007.4 - - - - - - - - -
03/05:30am 26.6 W 15 17 1006.8 - - - - - - - - -
03/05:00am 26.6 W 16 18 1006.4 - - - - - - - - -
03/04:30am 26.7 W 16 18 1006.3 - - - - - - - - -
03/04:00am 26.7 W 15 18 1006.3 - - - - - - - - -
03/03:30am 26.9 W 16 18 1006.2 - - - - - - - - -
03/03:00am 26.9 W 18 19 1005.8 - - - - - - - - -
03/02:30am 26.9 W 17 19 1006.2 - - - - - - - - -
03/02:00am 27.0 W 18 21 1006.0 - - - - - - - - -
03/01:30am 27.0 W 18 21 1005.8 - - - - - - - - -
03/01:00am 27.1 W 19 22 1005.7 - - - - - - - - -

Other Formats:

Comma delimited format used in spreadsheet applications
http://www.bom.gov.au/fwo/IDW60701/IDW60701.94310.axf

JavaScript Object Notation format (JSON) in row-major order
http://www.bom.gov.au/fwo/IDW60701/IDW60701.94310.json